createdAt,value
2017-11-13T00:00:10.429Z,79.14
2017-11-13T00:00:50.847Z,78.71
2017-11-13T00:01:31.251Z,78.42
2017-11-13T00:02:11.686Z,78.52
2017-11-13T00:02:52.163Z,78.48
2017-11-13T00:03:32.641Z,78.52
2017-11-13T00:04:13.047Z,78.38
2017-11-13T00:04:53.456Z,78.52
2017-11-13T00:05:33.897Z,78.42
2017-11-13T00:06:14.214Z,78.48
2017-11-13T00:06:54.702Z,78.14
2017-11-13T00:07:35.047Z,79.09
2017-11-13T00:08:15.405Z,78.52
2017-11-13T00:08:55.856Z,78.8
2017-11-13T00:09:36.234Z,78.52
2017-11-13T00:10:16.705Z,78.48
2017-11-13T00:10:57.125Z,78.48
2017-11-13T00:11:37.499Z,78.57
2017-11-13T00:12:17.947Z,78.52
2017-11-13T00:12:58.396Z,78.52
2017-11-13T00:13:38.835Z,78.96
2017-11-13T00:14:19.308Z,78.61
2017-11-13T00:14:59.653Z,78.57
2017-11-13T00:15:40.161Z,78.29
2017-11-13T00:16:20.519Z,78.57
2017-11-13T00:17:00.964Z,78.57
2017-11-13T00:17:41.622Z,79.14
2017-11-13T00:18:21.785Z,79.05
2017-11-13T00:19:02.133Z,78.96
2017-11-13T00:19:42.607Z,78.96
2017-11-13T00:20:22.936Z,79.14
2017-11-13T00:21:03.499Z,79.05
2017-11-13T00:21:43.896Z,79.14
2017-11-13T00:22:24.290Z,78.48
2017-11-13T00:23:04.728Z,78.42
2017-11-13T00:23:45.176Z,78.48
2017-11-13T00:24:25.561Z,78.57
2017-11-13T00:25:05.972Z,78.96
2017-11-13T00:25:46.395Z,78.42
2017-11-13T00:26:26.860Z,78.71
2017-11-13T00:27:07.347Z,78.61
2017-11-13T00:27:47.789Z,77.91
2017-11-13T00:28:28.243Z,78.14
2017-11-13T00:29:08.616Z,77.95
2017-11-13T00:29:49.053Z,78.23
2017-11-13T00:30:29.498Z,78.61
2017-11-13T00:31:09.910Z,78.04
2017-11-13T00:31:50.330Z,78.29
2017-11-13T00:32:30.707Z,78.23
2017-11-13T00:33:11.147Z,77.76
2017-11-13T00:33:51.567Z,78.14
2017-11-13T00:34:31.947Z,77.95
2017-11-13T00:35:12.447Z,78.52
2017-11-13T00:35:52.882Z,77.85
2017-11-13T00:36:33.343Z,77.56
2017-11-13T00:37:13.713Z,77.56
2017-11-13T00:37:54.170Z,77.85
2017-11-13T00:38:34.590Z,78.29
2017-11-13T00:39:15.070Z,78.23
2017-11-13T00:39:55.439Z,78
2017-11-13T00:40:35.850Z,77.81
2017-11-13T00:41:16.208Z,78.1
2017-11-13T00:41:56.620Z,78.1
2017-11-13T00:42:37.029Z,78
2017-11-13T00:43:17.463Z,78.48
2017-11-13T00:43:57.822Z,78.77
2017-11-13T00:44:38.208Z,78.38
2017-11-13T00:45:18.709Z,79.05
2017-11-13T00:45:59.087Z,79.14
2017-11-13T00:46:39.642Z,78.96
2017-11-13T00:47:20.091Z,78.48
2017-11-13T00:48:00.557Z,78.48
2017-11-13T00:48:40.994Z,78.48
2017-11-13T00:49:21.441Z,78.67
2017-11-13T00:50:01.771Z,78.29
2017-11-13T00:50:42.177Z,78.48
2017-11-13T00:51:22.644Z,78.48
2017-11-13T00:52:03.144Z,78.57
2017-11-13T00:52:43.523Z,78.19
2017-11-13T00:53:23.895Z,78.19
2017-11-13T00:54:04.316Z,77.91
2017-11-13T00:54:44.712Z,78.48
2017-11-13T00:55:25.235Z,78.29
2017-11-13T00:56:05.659Z,78.48
2017-11-13T00:56:46.028Z,78.57
2017-11-13T00:57:26.429Z,78.48
2017-11-13T00:58:06.907Z,77.91
2017-11-13T00:58:47.349Z,78.19
2017-11-13T00:59:27.822Z,77.81
2017-11-13T01:00:08.243Z,78.23
2017-11-13T01:00:48.618Z,78.57
2017-11-13T01:01:29.063Z,78
2017-11-13T01:02:09.486Z,78
2017-11-13T01:02:50.003Z,78.71
2017-11-13T01:03:30.391Z,78.52
2017-11-13T01:04:10.754Z,77.66
2017-11-13T01:04:51.282Z,78.04
2017-11-13T01:05:31.768Z,78.04
2017-11-13T01:06:12.140Z,77.95
2017-11-13T01:06:52.530Z,77.56
2017-11-13T01:07:32.947Z,77.28
2017-11-13T01:08:13.415Z,77.66
2017-11-13T01:08:53.748Z,77.24
2017-11-13T01:09:34.196Z,77.72
2017-11-13T01:10:14.588Z,77.47
2017-11-13T01:10:54.944Z,77.24
2017-11-13T01:11:35.377Z,77.34
2017-11-13T01:12:15.788Z,77.66
2017-11-13T01:12:56.216Z,77.43
2017-11-13T01:13:36.663Z,78.04
2017-11-13T01:14:17.037Z,77.66
2017-11-13T01:14:57.426Z,77.05
2017-11-13T01:15:37.862Z,77.43
2017-11-13T01:16:18.313Z,77.91
2017-11-13T01:16:58.707Z,77.24
2017-11-13T01:17:39.076Z,77.91
2017-11-13T01:18:19.493Z,77.91
2017-11-13T01:18:59.941Z,78.38
2017-11-13T01:19:40.437Z,77.62
2017-11-13T01:20:20.841Z,77.53
2017-11-13T01:21:01.268Z,78.1
2017-11-13T01:21:41.651Z,77.62
2017-11-13T01:22:22.189Z,77.62
2017-11-13T01:23:02.516Z,77.34
2017-11-13T01:23:42.886Z,78
2017-11-13T01:24:23.326Z,77.91
2017-11-13T01:25:03.690Z,77.53
2017-11-13T01:25:44.153Z,77.91
2017-11-13T01:26:24.614Z,78.19
2017-11-13T01:27:05.114Z,78.71
2017-11-13T01:27:45.460Z,77.95
2017-11-13T01:28:25.828Z,77.95
2017-11-13T01:29:06.269Z,77.95
2017-11-13T01:29:46.637Z,77.47
2017-11-13T01:30:27.096Z,77.37
2017-11-13T01:31:07.478Z,77.47
2017-11-13T01:31:47.895Z,77.85
2017-11-13T01:32:28.279Z,77.37
2017-11-13T01:33:08.739Z,77.09
2017-11-13T01:33:49.125Z,77.19
2017-11-13T01:34:29.506Z,76.9
2017-11-13T01:35:09.904Z,76.9
2017-11-13T01:35:50.322Z,77.09
2017-11-13T01:36:30.747Z,76.33
2017-11-13T01:37:11.124Z,76.9
2017-11-13T01:37:51.539Z,76.52
2017-11-13T01:38:31.978Z,77.09
2017-11-13T01:39:12.412Z,76.9
2017-11-13T01:39:52.929Z,76.42
2017-11-13T01:40:33.407Z,75.76
2017-11-13T01:41:13.780Z,75.85
2017-11-13T01:41:54.183Z,76.14
2017-11-13T01:42:34.566Z,76.23
2017-11-13T01:43:15.027Z,75.38
2017-11-13T01:43:55.427Z,76.04
2017-11-13T01:44:35.960Z,76.33
2017-11-13T01:45:16.305Z,76.23
2017-11-13T01:45:56.716Z,76.04
2017-11-13T01:46:37.112Z,76.81
2017-11-13T01:47:17.529Z,76.42
2017-11-13T01:47:57.929Z,76.9
2017-11-13T01:48:38.359Z,77.19
2017-11-13T01:49:18.821Z,76.81
2017-11-13T01:49:59.255Z,76.9
2017-11-13T01:50:39.721Z,77.19
2017-11-13T01:51:20.043Z,77
2017-11-13T01:52:00.449Z,76.61
2017-11-13T01:52:40.951Z,77.09
2017-11-13T01:53:21.306Z,77.56
2017-11-13T01:55:39.968Z,76.81
2017-11-13T01:56:23.821Z,76.9
2017-11-13T01:57:03.966Z,76.52
2017-11-13T01:57:44.358Z,77.19
2017-11-13T01:58:24.783Z,76.81
2017-11-13T01:59:05.165Z,77
2017-11-13T01:59:45.653Z,76.52
2017-11-13T02:00:26.024Z,76.81
2017-11-13T02:01:06.388Z,77.56
2017-11-13T02:01:46.804Z,76.9
2017-11-13T02:02:27.146Z,77.47
2017-11-13T02:03:07.560Z,76.9
2017-11-13T02:03:48.018Z,77.19
2017-11-13T02:04:28.362Z,77.28
2017-11-13T02:05:08.875Z,77.09
2017-11-13T02:05:49.493Z,77.37
2017-11-13T02:06:29.861Z,77.66
2017-11-13T02:07:10.252Z,76.96
2017-11-13T02:07:50.692Z,77.28
2017-11-13T02:08:31.066Z,77.47
2017-11-13T02:09:11.535Z,77.66
2017-11-13T02:09:51.918Z,78.14
2017-11-13T02:10:32.323Z,77.56
2017-11-13T02:11:12.771Z,77.09
2017-11-13T02:11:53.259Z,77.37
2017-11-13T02:12:33.675Z,77.19
2017-11-13T02:13:14.126Z,77
2017-11-13T02:13:54.534Z,77
2017-11-13T02:14:34.936Z,77.09
2017-11-13T02:15:15.308Z,77.09
2017-11-13T02:15:55.747Z,77.09
2017-11-13T02:16:36.232Z,76.71
2017-11-13T02:17:16.650Z,77.09
2017-11-13T02:17:57.002Z,76.33
2017-11-13T02:18:37.474Z,76.61
2017-11-13T02:19:17.894Z,76.61
2017-11-13T02:19:58.334Z,76.14
2017-11-13T02:20:38.711Z,76.42
2017-11-13T02:21:19.139Z,76.14
2017-11-13T02:21:59.606Z,76.52
2017-11-13T02:22:40.002Z,76.42
2017-11-13T02:23:20.349Z,76.42
2017-11-13T02:24:01.025Z,76.52
2017-11-13T02:24:41.231Z,77
2017-11-13T02:25:21.656Z,76.81
2017-11-13T02:26:02.146Z,77
2017-11-13T02:26:42.626Z,77
2017-11-13T02:27:23.108Z,77
2017-11-13T02:28:03.446Z,77
2017-11-13T02:28:43.939Z,76.71
2017-11-13T02:29:24.426Z,77
2017-11-13T02:30:04.847Z,77.28
2017-11-13T02:30:45.223Z,76.9
2017-11-13T02:31:25.599Z,77.09
2017-11-13T02:32:06.049Z,77.37
2017-11-13T02:32:46.486Z,76.81
2017-11-13T02:33:26.967Z,77.09
2017-11-13T02:34:07.400Z,76.52
2017-11-13T02:34:47.759Z,77.09
2017-11-13T02:35:28.164Z,76.61
2017-11-13T02:36:08.635Z,76.61
2017-11-13T02:36:49.048Z,76.23
2017-11-13T02:37:29.562Z,76.23
2017-11-13T02:38:09.996Z,76.81
2017-11-13T02:38:50.504Z,77
2017-11-13T02:39:30.809Z,77
2017-11-13T02:40:11.304Z,77.19
2017-11-13T02:40:51.811Z,76.9
2017-11-13T02:41:32.168Z,76.52
2017-11-13T02:42:12.606Z,76.81
2017-11-13T02:42:52.966Z,76.71
2017-11-13T02:43:33.487Z,76.04
2017-11-13T02:44:13.820Z,76.04
2017-11-13T02:44:54.236Z,76.33
2017-11-13T02:45:34.607Z,76.04
2017-11-13T02:46:15.045Z,76.23
2017-11-13T02:46:55.436Z,76.61
2017-11-13T02:47:35.838Z,77.09
2017-11-13T02:48:16.262Z,76.71
2017-11-13T02:48:56.750Z,76.9
2017-11-13T02:49:37.172Z,76.61
2017-11-13T02:50:17.577Z,76.9
2017-11-13T02:50:57.953Z,76.61
2017-11-13T02:51:38.502Z,76.61
2017-11-13T02:52:18.880Z,76.14
2017-11-13T02:52:59.357Z,76.61
2017-11-13T02:53:39.667Z,76.52
2017-11-13T02:54:20.122Z,75.85
2017-11-13T02:55:00.550Z,75.95
2017-11-13T02:55:40.958Z,75.85
2017-11-13T02:56:21.332Z,76.42
2017-11-13T02:57:01.780Z,76.04
2017-11-13T02:57:42.134Z,76.23
2017-11-13T02:58:22.542Z,75.85
2017-11-13T02:59:03.084Z,76.14
2017-11-13T02:59:43.492Z,75.95
2017-11-13T03:00:23.851Z,76.14
2017-11-13T03:01:04.241Z,76.81
2017-11-13T03:01:44.661Z,76.33
2017-11-13T03:02:25.076Z,75.95
2017-11-13T03:03:05.398Z,76.04
2017-11-13T03:03:45.898Z,76.23
2017-11-13T03:04:26.231Z,76.23
2017-11-13T03:05:06.613Z,75.47
2017-11-13T03:05:47.062Z,76.04
2017-11-13T03:06:27.472Z,76.23
2017-11-13T03:07:07.872Z,75.95
2017-11-13T03:07:48.408Z,75.76
2017-11-13T03:08:28.762Z,76.71
2017-11-13T03:09:09.174Z,77.09
2017-11-13T03:09:49.556Z,76.42
2017-11-13T03:10:29.959Z,76.42
2017-11-13T03:11:10.435Z,76.52
2017-11-13T03:11:50.790Z,76.81
2017-11-13T03:12:31.214Z,76.81
2017-11-13T03:13:11.579Z,77
2017-11-13T03:13:51.904Z,77.53
2017-11-13T03:14:32.394Z,76.9
2017-11-13T03:15:12.730Z,77
2017-11-13T03:15:53.152Z,76.9
2017-11-13T03:16:33.640Z,77
2017-11-13T03:17:13.929Z,77.09
2017-11-13T03:17:54.411Z,77.24
2017-11-13T03:18:34.781Z,77.15
2017-11-13T03:19:15.423Z,77.28
2017-11-13T03:19:55.845Z,77.28
2017-11-13T03:20:36.179Z,77.56
2017-11-13T03:21:16.576Z,76.71
2017-11-13T03:21:56.983Z,76.52
2017-11-13T03:22:37.368Z,76.04
2017-11-13T03:23:17.847Z,76.52
2017-11-13T03:23:58.370Z,76.33
2017-11-13T03:24:38.705Z,76.61
2017-11-13T03:25:19.130Z,77.09
2017-11-13T03:25:59.532Z,77.28
2017-11-13T03:26:39.976Z,78.04
2017-11-13T03:27:20.400Z,77.37
2017-11-13T03:28:00.858Z,76.52
2017-11-13T03:28:41.407Z,76.33
2017-11-13T03:29:21.825Z,76.9
2017-11-13T03:30:02.145Z,77.09
2017-11-13T03:30:42.614Z,77
2017-11-13T03:31:23.108Z,76.52
2017-11-13T03:32:03.550Z,76.42
2017-11-13T03:32:43.884Z,77.09
2017-11-13T03:33:24.311Z,76.52
2017-11-13T03:34:04.694Z,76.81
2017-11-13T03:34:45.060Z,76.33
2017-11-13T03:35:25.536Z,76.33
2017-11-13T03:36:05.899Z,76.52
2017-11-13T03:36:46.381Z,76.71
2017-11-13T03:37:26.690Z,76.42
2017-11-13T03:38:07.129Z,76.61
2017-11-13T03:38:47.514Z,76.61
2017-11-13T03:39:27.962Z,76.14
2017-11-13T03:40:08.381Z,76.04
2017-11-13T03:40:48.861Z,75.67
2017-11-13T03:41:29.249Z,76.14
2017-11-13T03:42:09.640Z,77.19
2017-11-13T03:42:50.090Z,77.24
2017-11-13T03:43:30.490Z,76.9
2017-11-13T03:44:10.911Z,77.37
2017-11-13T03:44:51.342Z,77.28
2017-11-13T03:45:31.847Z,77
2017-11-13T03:46:12.215Z,77.28
2017-11-13T03:46:52.594Z,76.42
2017-11-13T03:47:33.021Z,76.23
2017-11-13T03:48:13.443Z,75.85
2017-11-13T03:48:53.997Z,76.42
2017-11-13T03:49:34.285Z,77.09
2017-11-13T03:50:14.699Z,76.9
2017-11-13T03:50:55.139Z,77.09
2017-11-13T03:51:35.598Z,76.9
2017-11-13T03:52:15.987Z,76.81
2017-11-13T03:52:56.435Z,77
2017-11-13T03:53:37.038Z,76.9
2017-11-13T03:54:17.424Z,77.56
2017-11-13T03:54:57.755Z,77.28
2017-11-13T03:55:38.256Z,77.76
2017-11-13T03:56:18.719Z,77.28
2017-11-13T03:56:59.113Z,77.28
2017-11-13T03:57:39.591Z,77.56
2017-11-13T03:58:20.014Z,77
2017-11-13T03:59:00.435Z,77.47
2017-11-13T03:59:40.845Z,77.28
2017-11-13T04:00:21.476Z,76.9
2017-11-13T04:01:01.870Z,77.19
2017-11-13T04:01:42.287Z,77.37
2017-11-13T04:41:22.271Z,81.77
2017-11-13T04:42:10.459Z,81.29
2017-11-13T04:42:50.736Z,81.29
2017-11-13T04:43:31.139Z,81.86
2017-11-13T04:44:11.513Z,82.53
2017-11-13T04:44:51.927Z,83
2017-11-13T04:45:32.289Z,82.81
2017-11-13T04:46:12.713Z,82.81
2017-11-13T04:46:53.234Z,82.81
2017-11-13T04:47:33.554Z,83.58
2017-11-13T04:48:13.991Z,83
2017-11-13T04:48:54.344Z,82.76
2017-11-13T04:49:34.811Z,82.48
2017-11-13T04:50:15.280Z,82.48
2017-11-13T04:50:55.739Z,81.81
2017-11-13T04:51:36.139Z,81.05
2017-11-13T04:52:16.586Z,80.29
2017-11-13T04:52:56.957Z,80
2017-11-13T04:53:37.376Z,80.19
2017-11-13T04:54:17.807Z,80.95
2017-11-13T04:54:58.316Z,80.86
2017-11-13T04:55:38.793Z,80.66
2017-11-13T04:56:19.192Z,80.57
2017-11-13T04:56:59.704Z,80.66
2017-11-13T04:57:40.070Z,81.05
2017-11-13T04:58:20.601Z,80.76
2017-11-13T04:59:01.051Z,81.24
2017-11-13T04:59:41.417Z,80.95
2017-11-13T05:00:21.854Z,81.43
2017-11-13T05:01:02.203Z,81.24
2017-11-13T05:01:42.710Z,80.86
2017-11-13T05:02:23.125Z,80.47
2017-11-13T05:03:03.533Z,80.47
2017-11-13T05:03:43.966Z,81.14
2017-11-13T05:04:24.290Z,80.95
2017-11-13T05:05:04.724Z,80.95
2017-11-13T05:05:45.201Z,80.57
2017-11-13T05:06:25.589Z,80.38
2017-11-13T05:07:06.071Z,80
2017-11-13T05:07:46.499Z,80.38
2017-11-13T05:08:26.880Z,80.57
2017-11-13T05:09:07.273Z,80.47
2017-11-13T05:09:47.739Z,80.66
2017-11-13T05:10:28.176Z,80.29
2017-11-13T05:11:08.567Z,79.91
2017-11-13T05:11:49.008Z,80.33
2017-11-13T05:12:29.432Z,79.94
2017-11-13T05:13:09.861Z,79.94
2017-11-13T05:13:50.333Z,79.14
2017-11-13T05:14:30.828Z,79.94
2017-11-13T05:15:11.281Z,80.1
2017-11-13T05:15:51.821Z,80.23
2017-11-13T05:16:32.205Z,79.47
2017-11-13T05:17:12.721Z,79.19
2017-11-13T05:17:53.193Z,79.66
2017-11-13T05:18:33.573Z,79.19
2017-11-13T05:19:14.841Z,79.19
2017-11-13T05:19:54.464Z,79.19
2017-11-13T05:20:34.820Z,79.19
2017-11-13T05:21:15.305Z,79.09
2017-11-13T05:21:55.672Z,78.99
2017-11-13T05:22:36.067Z,79.09
2017-11-13T05:23:16.653Z,79.09
2017-11-13T05:23:57.057Z,78.52
2017-11-13T05:24:37.525Z,78.61
2017-11-13T05:25:17.875Z,78.33
2017-11-13T05:25:58.295Z,78.52
2017-11-13T05:26:38.807Z,78.99
2017-11-13T05:27:19.163Z,78.99
2017-11-13T05:27:59.576Z,78.52
2017-11-13T05:28:40.002Z,78.99
2017-11-13T05:29:20.402Z,78.56
2017-11-13T05:30:00.812Z,78.61
2017-11-13T05:30:41.218Z,77.8
2017-11-13T05:31:21.657Z,77.56
2017-11-13T05:32:01.970Z,77.76
2017-11-13T05:32:42.434Z,77.95
2017-11-13T05:33:22.825Z,78.52
2017-11-13T05:34:03.293Z,78.04
2017-11-13T05:34:43.739Z,78.33
2017-11-13T05:35:24.189Z,78.14
2017-11-13T05:36:04.554Z,78.14
2017-11-13T05:36:44.984Z,78.61
2017-11-13T05:37:25.482Z,78.14
2017-11-13T05:38:05.887Z,78.52
2017-11-13T05:38:46.337Z,79.28
2017-11-13T05:39:26.732Z,79.19
2017-11-13T05:40:07.101Z,78.42
2017-11-13T05:40:47.495Z,78.9
2017-11-13T05:41:27.987Z,78.99
2017-11-13T05:42:08.333Z,78.8
2017-11-13T05:42:48.776Z,79.19
2017-11-13T05:43:29.218Z,79.47
2017-11-13T05:44:09.821Z,79.57
2017-11-13T05:44:50.125Z,78.9
2017-11-13T05:45:30.765Z,78.99
2017-11-13T05:46:11.208Z,78.99
2017-11-13T05:46:51.583Z,80.23
2017-11-13T05:47:32.027Z,80.52
2017-11-13T05:48:12.453Z,80.42
2017-11-13T05:48:52.866Z,79.94
2017-11-13T05:49:33.286Z,79.6
2017-11-13T05:50:13.686Z,79.13
2017-11-13T05:50:54.198Z,78.27
2017-11-13T05:51:34.666Z,78.52
2017-11-13T05:52:15.041Z,78.56
2017-11-13T05:52:55.511Z,79.38
2017-11-13T05:53:36.029Z,78.56
2017-11-13T05:54:16.471Z,78.37
2017-11-13T05:54:56.939Z,79.99
2017-11-13T05:55:37.351Z,79.7
2017-11-13T05:56:17.737Z,79.22
2017-11-13T05:56:58.068Z,78.42
2017-11-13T05:57:38.642Z,79.38
2017-11-13T05:58:19.060Z,79.13
2017-11-13T05:58:59.371Z,78.52
2017-11-13T05:59:39.980Z,79.09
2017-11-13T06:00:20.406Z,79.28
2017-11-13T06:01:00.794Z,79.66
2017-11-13T06:01:41.316Z,79.66
2017-11-13T06:02:21.691Z,79.94
2017-11-13T06:03:02.340Z,79.38
2017-11-13T06:05:04.952Z,79.94
2017-11-13T06:06:05.320Z,80.71
2017-11-13T06:07:03.321Z,80.52
2017-11-13T06:08:07.054Z,80.52
2017-11-13T06:10:49.727Z,81.85
2017-11-13T06:11:31.218Z,80.99
2017-11-13T06:12:11.202Z,81.37
2017-11-13T06:12:51.997Z,81.95
2017-11-13T06:13:32.821Z,82.51
2017-11-13T06:14:13.664Z,81.85
2017-11-13T06:14:54.198Z,81.76
2017-11-13T06:15:35.010Z,81.56
2017-11-13T06:16:16.339Z,81.76
2017-11-13T06:16:58.752Z,81.18
2017-11-13T06:17:39.827Z,81.95
2017-11-13T06:18:20.647Z,81.47
2017-11-13T06:19:01.964Z,80.99
2017-11-13T06:19:41.848Z,81.28
2017-11-13T06:20:22.597Z,81.56
2017-11-13T06:21:03.425Z,81.56
2017-11-13T06:21:44.685Z,81.66
2017-11-13T06:22:24.728Z,81.66
2017-11-13T06:23:05.195Z,81.76
2017-11-13T06:23:45.555Z,82.14
2017-11-13T06:24:26.078Z,81.18
2017-11-13T06:25:06.488Z,81.28
2017-11-13T06:25:46.961Z,81.47
2017-11-13T06:26:27.530Z,80.9
2017-11-13T06:27:08.022Z,80.33
2017-11-13T06:27:48.496Z,79.94
2017-11-13T06:28:29.036Z,81.09
2017-11-13T06:29:09.365Z,80.9
2017-11-13T06:29:49.776Z,80.8
2017-11-13T06:30:30.334Z,80.99
2017-11-13T06:31:10.903Z,81.18
2017-11-13T06:31:51.266Z,80.9
2017-11-13T06:32:31.740Z,81.09
2017-11-13T06:33:12.067Z,80.23
2017-11-13T06:33:52.502Z,80.9
2017-11-13T06:34:33.029Z,81.76
2017-11-13T06:35:13.563Z,81.09
2017-11-13T06:35:53.886Z,80.99
2017-11-13T06:36:34.454Z,80.99
2017-11-13T06:37:14.868Z,80.61
2017-11-13T06:37:56.800Z,79.94
2017-11-13T06:38:38.366Z,80.52
2017-11-13T06:39:20.098Z,80.13
2017-11-13T06:39:59.617Z,80.42
2017-11-13T06:40:40.175Z,80.42
2017-11-13T06:41:21.562Z,80.8
2017-11-13T06:42:02.067Z,80.61
2017-11-13T06:42:42.523Z,80.8
2017-11-13T06:43:23.171Z,80.9
2017-11-13T06:44:03.450Z,81.47
2017-11-13T06:44:44.010Z,81.37
2017-11-13T06:45:24.914Z,80.61
2017-11-13T06:46:05.468Z,80.33
2017-11-13T06:46:46.142Z,80.04
2017-11-13T06:47:26.462Z,80.99
2017-11-13T06:48:07.045Z,80.52
2017-11-13T06:48:48.745Z,80.13
2017-11-13T06:49:29.695Z,80.13
2017-11-13T06:50:10.100Z,80.23
2017-11-13T06:50:51.149Z,79.94
2017-11-13T06:51:31.607Z,80.23
2017-11-13T06:52:12.262Z,80.71
2017-11-13T06:52:52.593Z,80.23
2017-11-13T06:53:34.012Z,80.42
2017-11-13T06:54:14.532Z,79.47
2017-11-13T06:54:54.989Z,80.33
2017-11-13T06:55:35.503Z,79.94
2017-11-13T06:56:15.838Z,79.75
2017-11-13T06:56:56.557Z,79.75
2017-11-13T06:57:37.382Z,80.33
2017-11-13T06:58:18.135Z,79.99
2017-11-13T06:58:59.260Z,80.18
2017-11-13T06:59:39.765Z,79.89
2017-11-13T07:00:20.704Z,79.99
2017-11-13T07:01:00.888Z,80.36
2017-11-13T07:01:41.545Z,79.6
2017-11-13T07:02:21.992Z,79.32
2017-11-13T07:03:02.614Z,79.51
2017-11-13T07:03:43.158Z,79.41
2017-11-13T07:04:23.684Z,79.32
2017-11-13T07:05:04.017Z,79.6
2017-11-13T07:05:44.625Z,79.03
2017-11-13T07:06:24.974Z,79.03
2017-11-13T07:07:05.408Z,78.27
2017-11-13T07:07:45.766Z,79.22
2017-11-13T07:08:26.428Z,78.65
2017-11-13T07:09:06.789Z,78.46
2017-11-13T07:09:47.214Z,78.56
2017-11-13T07:10:27.634Z,79.03
2017-11-13T07:11:08.074Z,79.03
2017-11-13T07:11:48.537Z,79.03
2017-11-13T07:12:28.992Z,79.51
2017-11-13T07:13:09.461Z,78.85
2017-11-13T07:13:49.938Z,78.65
2017-11-13T07:14:30.448Z,78.65
2017-11-13T07:15:10.962Z,78.17
2017-11-13T07:15:51.496Z,78.27
2017-11-13T07:16:31.996Z,78.37
2017-11-13T07:17:12.638Z,78.17
2017-11-13T07:17:53.473Z,78.37
2017-11-13T07:18:34.965Z,78.27
2017-11-13T07:19:14.407Z,78.56
2017-11-13T07:19:55.551Z,77.51
2017-11-13T07:20:37.157Z,78.08
2017-11-13T07:21:17.092Z,77.8
2017-11-13T07:21:57.787Z,78.65
2017-11-13T07:22:39.083Z,78.56
2017-11-13T07:23:19.579Z,78.46
2017-11-13T07:24:00.456Z,78.56
2017-11-13T07:24:40.867Z,79.03
2017-11-13T07:25:21.383Z,78.56
2017-11-13T07:26:02.880Z,78.46
2017-11-13T07:26:45.299Z,78.33
2017-11-13T07:27:25.667Z,79.22
2017-11-13T07:28:06.390Z,79.22
2017-11-13T07:28:46.876Z,79.03
2017-11-13T07:29:28.230Z,78.56
2017-11-13T07:30:09.082Z,79.13
2017-11-13T07:30:49.517Z,79.03
2017-11-13T07:31:30.005Z,78.08
2017-11-13T07:33:33.384Z,78.85
2017-11-13T07:34:30.197Z,77.7
2017-11-13T07:35:29.267Z,78.08
2017-11-13T07:36:25.809Z,77.61
2017-11-13T07:37:26.740Z,77.98
2017-11-13T07:39:31.855Z,77.98
2017-11-13T07:40:28.567Z,78.17
2017-11-13T07:41:36.604Z,78.08
2017-11-13T07:42:17.783Z,77.7
2017-11-13T07:42:59.370Z,78.46
2017-11-13T07:43:39.804Z,78.75
2017-11-13T07:44:20.177Z,78.75
2017-11-13T07:45:00.662Z,78.56
2017-11-13T07:45:41.259Z,79.03
2017-11-13T07:46:22.572Z,78.75
2017-11-13T07:47:03.096Z,78.56
2017-11-13T07:47:44.711Z,78.75
2017-11-13T07:48:25.093Z,78.56
2017-11-13T07:49:05.550Z,78.56
2017-11-13T07:49:47.139Z,78.17
2017-11-13T07:50:27.632Z,78.27
2017-11-13T07:51:09.539Z,77.89
2017-11-13T07:51:57.001Z,77.98
2017-11-13T07:52:42.365Z,77.98
2017-11-13T07:55:00.807Z,77.89
2017-11-13T07:58:54.071Z,77.22
2017-11-13T08:00:02.030Z,77.61
2017-11-13T08:01:03.616Z,77.61
2017-11-13T08:02:19.009Z,77.13
2017-11-13T08:03:51.889Z,76.08
2017-11-13T08:04:58.982Z,76.18
2017-11-13T08:10:16.323Z,76.12
2017-11-13T08:12:23.424Z,74.31
2017-11-13T08:13:39.336Z,74.02
2017-11-13T08:14:31.261Z,73.45
2017-11-13T08:15:11.939Z,73.17
2017-11-13T08:15:52.681Z,73.17
2017-11-13T08:20:44.384Z,71.39
2017-11-13T08:21:25.319Z,70.53
2017-11-13T08:22:07.085Z,70.95
2017-11-13T08:22:48.019Z,70.09
2017-11-13T08:23:28.769Z,69.71
2017-11-13T08:24:10.745Z,69.43
2017-11-13T08:24:51.272Z,68.79
2017-11-13T08:25:32.673Z,68.12
2017-11-13T08:26:16.030Z,67.93
2017-11-13T08:26:57.778Z,67.07
2017-11-13T08:27:39.252Z,66.6
2017-11-13T08:28:20.663Z,65.83
2017-11-13T08:29:01.752Z,66.53
2017-11-13T08:29:42.646Z,65.1
2017-11-13T08:30:23.100Z,64.72
2017-11-13T08:31:05.058Z,64.53
2017-11-13T08:31:45.957Z,65.01
2017-11-13T08:32:27.697Z,64.62
2017-11-13T08:34:53.132Z,63.8
2017-11-13T08:35:35.503Z,64.28
2017-11-13T08:36:16.005Z,63.8
2017-11-13T08:36:56.496Z,63.7
2017-11-13T08:37:39.467Z,63.42
2017-11-13T08:38:21.664Z,63.35
2017-11-13T08:39:03.623Z,62.97
2017-11-13T08:41:19.926Z,61.44
2017-11-13T08:42:30.652Z,60.68
2017-11-13T08:43:26.632Z,60.68
2017-11-13T08:44:27.688Z,60.58
2017-11-13T08:45:34.132Z,61.35
2017-11-13T08:46:33.453Z,61.82
2017-11-13T08:47:32.541Z,61.22
2017-11-13T08:48:32.685Z,62.78
2017-11-13T08:51:21.139Z,61.16
2017-11-13T08:52:34.948Z,60.96
2017-11-13T08:53:40.419Z,60.68
2017-11-13T08:54:42.253Z,60.39
2017-11-13T08:57:30.129Z,61.25
2017-11-13T08:58:35.424Z,60.77
2017-11-13T09:01:26.346Z,60.52
2017-11-13T09:02:22.273Z,60.33
2017-11-13T09:04:52.685Z,59.4
2017-11-13T09:05:46.081Z,58.34
2017-11-13T09:06:26.612Z,57.8
2017-11-13T09:07:07.139Z,57.7
2017-11-13T09:07:50.304Z,56.68
2017-11-13T09:08:30.788Z,56.2
2017-11-13T09:09:11.539Z,56.01
2017-11-13T09:09:53.123Z,55.44
2017-11-13T09:10:34.203Z,55.34
2017-11-13T09:11:14.827Z,55.15
2017-11-13T09:11:55.405Z,54.86
2017-11-13T09:12:36.232Z,55.05
2017-11-13T09:13:16.952Z,55.24
2017-11-13T09:13:57.564Z,54.5
2017-11-13T09:14:38.169Z,54.1
2017-11-13T09:15:23.678Z,54.77
2017-11-13T09:16:04.376Z,54.32
2017-11-13T09:16:44.988Z,54.79
2017-11-13T09:17:26.478Z,53.83
2017-11-13T09:18:13.205Z,54.32
2017-11-13T09:18:53.949Z,54.03
2017-11-13T09:19:34.422Z,53.93
2017-11-13T09:20:14.988Z,53.55
2017-11-13T09:20:55.622Z,53.58
2017-11-13T09:21:36.297Z,52.59
2017-11-13T09:22:17.121Z,53
2017-11-13T09:23:17.374Z,52.97
2017-11-13T09:23:57.847Z,53.09
2017-11-13T09:25:08.346Z,52.52
2017-11-13T09:25:49.950Z,52.52
2017-11-13T09:28:15.082Z,52.23
2017-11-13T09:28:58.584Z,52.07
2017-11-13T09:29:40.172Z,51.3
2017-11-13T09:30:21.478Z,51.2
2017-11-13T09:31:02.606Z,51.3
2017-11-13T09:31:43.478Z,51.59
2017-11-13T09:32:24.015Z,51.59
2017-11-13T09:33:04.359Z,51.59
2017-11-13T09:35:19.587Z,51.3
2017-11-13T09:36:06.805Z,50.73
2017-11-13T09:36:47.215Z,50.56
2017-11-13T09:37:27.650Z,50.56
2017-11-13T09:38:09.455Z,49.79
2017-11-13T09:38:50.144Z,50.17
2017-11-13T09:39:31.572Z,49.98
2017-11-13T09:40:11.564Z,49.79
2017-11-13T09:40:52.940Z,49.69
2017-11-13T09:41:33.717Z,50.08
2017-11-13T09:42:14.118Z,49.88
2017-11-13T09:42:54.764Z,49.6
2017-11-13T09:43:36.960Z,49.79
2017-11-13T09:44:17.339Z,49.69
2017-11-13T09:44:59.090Z,49.12
2017-11-13T09:45:40.354Z,49.21
2017-11-13T09:46:21.100Z,49.41
2017-11-13T09:47:02.427Z,49.88
2017-11-13T09:47:42.984Z,49.31
2017-11-13T09:48:24.736Z,49.41
2017-11-13T09:49:06.022Z,48.54
2017-11-13T09:49:46.750Z,48.93
2017-11-13T09:50:28.141Z,49.02
2017-11-13T09:51:09.976Z,49.21
2017-11-13T09:51:50.873Z,49.05
2017-11-13T09:52:31.656Z,49.33
2017-11-13T09:53:14.306Z,49.43
2017-11-13T09:53:53.298Z,48.18
2017-11-13T09:54:33.868Z,48.11
2017-11-13T09:55:14.355Z,48.4
2017-11-13T09:55:59.430Z,48.4
2017-11-13T09:56:40.232Z,47.15
2017-11-13T09:57:21.412Z,47.94
2017-11-13T09:58:02.058Z,46.67
2017-11-13T09:58:42.603Z,46.86
2017-11-13T09:59:23.277Z,46.86
2017-11-13T10:00:05.178Z,46.48
2017-11-13T10:00:45.608Z,46.58
2017-11-13T10:01:26.021Z,46.48
2017-11-13T10:02:07.895Z,47.05
2017-11-13T10:02:49.201Z,47.44
2017-11-13T10:42:43.900Z,43.74
2017-11-13T10:43:28.650Z,43.84
2017-11-13T10:44:09.450Z,44.41
2017-11-13T10:44:50.583Z,44.51
2017-11-13T10:45:31.427Z,45.28
2017-11-13T10:46:11.860Z,44.99
2017-11-13T10:46:52.421Z,45.85
2017-11-13T10:47:33.931Z,45.76
2017-11-13T10:48:14.471Z,45.37
2017-11-13T10:48:55.053Z,44.89
2017-11-13T10:49:35.689Z,44.89
2017-11-13T10:50:16.293Z,43.84
2017-11-13T10:50:57.229Z,43.64
2017-11-13T10:51:39.058Z,44.51
2017-11-13T10:52:19.877Z,44.31
2017-11-13T10:53:07.085Z,44.12
2017-11-13T10:53:46.409Z,43.26
2017-11-13T10:54:28.731Z,43.35